sensor_id;sensor_type;location;lat;lon;timestamp;pressure;altitude;pressure_sealevel;temperature;humidity
60437;BME280;46289;51.992;4.498;2023-04-25T00:01:55;101366.38;;;5.79;80.54
60437;BME280;46289;51.992;4.498;2023-04-25T00:04:01;101370.72;;;5.78;81.02
60437;BME280;46289;51.992;4.498;2023-04-25T00:06:08;101370.81;;;5.72;80.68
60437;BME280;46289;51.992;4.498;2023-04-25T00:08:16;101372.66;;;5.64;81.25
60437;BME280;46289;51.992;4.498;2023-04-25T00:10:21;101369.22;;;5.59;81.49
60437;BME280;46289;51.992;4.498;2023-04-25T00:12:26;101372.78;;;5.52;81.67
60437;BME280;46289;51.992;4.498;2023-04-25T00:14:31;101373.72;;;5.46;82.08
60437;BME280;46289;51.992;4.498;2023-04-25T00:16:39;101376.41;;;5.40;82.26
60437;BME280;46289;51.992;4.498;2023-04-25T00:18:45;101377.28;;;5.37;82.22
60437;BME280;46289;51.992;4.498;2023-04-25T00:20:53;101379.91;;;5.34;81.78
60437;BME280;46289;51.992;4.498;2023-04-25T00:22:58;101385.16;;;5.33;82.09
60437;BME280;46289;51.992;4.498;2023-04-25T00:25:07;101377.34;;;5.33;81.76
60437;BME280;46289;51.992;4.498;2023-04-25T00:27:12;101374.75;;;5.28;81.94
60437;BME280;46289;51.992;4.498;2023-04-25T00:29:18;101373.97;;;5.18;82.44
60437;BME280;46289;51.992;4.498;2023-04-25T00:31:24;101377.47;;;5.17;82.06
60437;BME280;46289;51.992;4.498;2023-04-25T00:33:29;101378.38;;;5.16;82.19
60437;BME280;46289;51.992;4.498;2023-04-25T00:35:34;101378.41;;;5.10;82.39
60437;BME280;46289;51.992;4.498;2023-04-25T00:37:39;101373.22;;;5.07;82.56
60437;BME280;46289;51.992;4.498;2023-04-25T00:39:44;101379.34;;;5.01;82.60
60437;BME280;46289;51.992;4.498;2023-04-25T00:41:52;101379.38;;;4.97;82.92
60437;BME280;46289;51.992;4.498;2023-04-25T00:43:59;101379.47;;;4.91;82.81
60437;BME280;46289;51.992;4.498;2023-04-25T00:46:06;101377.72;;;4.90;82.90
60437;BME280;46289;51.992;4.498;2023-04-25T00:48:14;101376.81;;;4.94;82.81
60437;BME280;46289;51.992;4.498;2023-04-25T00:50:22;101383.75;;;4.98;82.64
60437;BME280;46289;51.992;4.498;2023-04-25T00:52:43;101395.91;;;4.96;82.90
60437;BME280;46289;51.992;4.498;2023-04-25T00:54:57;101397.66;;;4.94;83.39
60437;BME280;46289;51.992;4.498;2023-04-25T00:57:05;101389.84;;;4.95;83.32
60437;BME280;46289;51.992;4.498;2023-04-25T00:59:19;101395.88;;;4.97;83.05
60437;BME280;46289;51.992;4.498;2023-04-25T01:01:30;101397.59;;;5.00;83.19
60437;BME280;46289;51.992;4.498;2023-04-25T01:03:39;101400.19;;;5.03;83.06
60437;BME280;46289;51.992;4.498;2023-04-25T01:05:46;101404.47;;;5.12;82.38
60437;BME280;46289;51.992;4.498;2023-04-25T01:07:56;101401.84;;;5.12;82.48
60437;BME280;46289;51.992;4.498;2023-04-25T01:10:09;101411.38;;;5.13;81.97
60437;BME280;46289;51.992;4.498;2023-04-25T01:12:31;101402.63;;;5.18;81.66
60437;BME280;46289;51.992;4.498;2023-04-25T01:14:42;101401.81;;;5.13;81.94
60437;BME280;46289;51.992;4.498;2023-04-25T01:16:52;101400.06;;;5.17;81.14
60437;BME280;46289;51.992;4.498;2023-04-25T01:19:06;101400.09;;;5.12;81.50
60437;BME280;46289;51.992;4.498;2023-04-25T01:21:23;101402.72;;;5.11;81.82
60437;BME280;46289;51.992;4.498;2023-04-25T01:23:33;101410.63;;;5.03;81.64
60437;BME280;46289;51.992;4.498;2023-04-25T01:25:40;101403.66;;;5.02;81.36
60437;BME280;46289;51.992;4.498;2023-04-25T01:27:45;101406.22;;;5.05;80.27
60437;BME280;46289;51.992;4.498;2023-04-25T01:29:51;101411.50;;;5.00;80.40
60437;BME280;46289;51.992;4.498;2023-04-25T01:31:56;101415.88;;;4.95;80.95
60437;BME280;46289;51.992;4.498;2023-04-25T01:34:03;101414.09;;;4.99;79.91
60437;BME280;46289;51.992;4.498;2023-04-25T01:36:08;101415.81;;;5.00;79.21
60437;BME280;46289;51.992;4.498;2023-04-25T01:38:16;101415.84;;;4.98;78.98
60437;BME280;46289;51.992;4.498;2023-04-25T01:40:21;101408.94;;;4.96;78.67
60437;BME280;46289;51.992;4.498;2023-04-25T01:42:26;101414.09;;;4.97;77.62
60437;BME280;46289;51.992;4.498;2023-04-25T01:44:32;101412.41;;;4.98;77.62
60437;BME280;46289;51.992;4.498;2023-04-25T01:46:37;101415.91;;;4.91;78.34
60437;BME280;46289;51.992;4.498;2023-04-25T01:48:42;101414.16;;;4.90;77.96
60437;BME280;46289;51.992;4.498;2023-04-25T01:50:48;101414.19;;;4.87;78.11
60437;BME280;46289;51.992;4.498;2023-04-25T01:52:53;101421.16;;;4.86;77.68
60437;BME280;46289;51.992;4.498;2023-04-25T01:55:02;101424.63;;;4.87;77.71
60437;BME280;46289;51.992;4.498;2023-04-25T01:57:07;101423.75;;;4.86;77.98
60437;BME280;46289;51.992;4.498;2023-04-25T01:59:12;101414.22;;;4.85;78.04
60437;BME280;46289;51.992;4.498;2023-04-25T02:01:20;101412.47;;;4.86;78.10
60437;BME280;46289;51.992;4.498;2023-04-25T02:03:25;101429.00;;;4.84;78.72
60437;BME280;46289;51.992;4.498;2023-04-25T02:05:34;101423.78;;;4.84;78.92
60437;BME280;46289;51.992;4.498;2023-04-25T02:07:40;101421.16;;;4.86;78.63
60437;BME280;46289;51.992;4.498;2023-04-25T02:09:45;101422.91;;;4.87;78.27
60437;BME280;46289;51.992;4.498;2023-04-25T02:11:53;101425.47;;;4.89;78.20
60437;BME280;46289;51.992;4.498;2023-04-25T02:13:57;101421.16;;;4.88;78.74
60437;BME280;46289;51.992;4.498;2023-04-25T02:16:04;101427.19;;;4.93;78.11
60437;BME280;46289;51.992;4.498;2023-04-25T02:18:10;101427.19;;;4.93;78.95
60437;BME280;46289;51.992;4.498;2023-04-25T02:20:15;101430.63;;;4.96;78.78
60437;BME280;46289;51.992;4.498;2023-04-25T02:22:21;101446.09;;;5.13;77.29
60437;BME280;46289;51.992;4.498;2023-04-25T02:24:26;101453.03;;;5.19;77.60
60437;BME280;46289;51.992;4.498;2023-04-25T02:26:32;101434.75;;;5.20;79.19
60437;BME280;46289;51.992;4.498;2023-04-25T02:28:41;101437.41;;;5.19;76.89
60437;BME280;46289;51.992;4.498;2023-04-25T02:30:46;101429.59;;;5.16;78.30
60437;BME280;46289;51.992;4.498;2023-04-25T02:32:51;101431.34;;;5.15;79.39
60437;BME280;46289;51.992;4.498;2023-04-25T02:34:56;101429.63;;;5.13;78.60
60437;BME280;46289;51.992;4.498;2023-04-25T02:37:05;101431.41;;;5.09;79.54
60437;BME280;46289;51.992;4.498;2023-04-25T02:39:10;101438.31;;;5.10;79.44
60437;BME280;46289;51.992;4.498;2023-04-25T02:41:15;101436.59;;;5.09;80.09
60437;BME280;46289;51.992;4.498;2023-04-25T02:43:20;101435.72;;;5.12;80.12
60437;BME280;46289;51.992;4.498;2023-04-25T02:45:27;101432.22;;;5.14;81.18
60437;BME280;46289;51.992;4.498;2023-04-25T02:47:33;101433.97;;;5.14;81.62
60437;BME280;46289;51.992;4.498;2023-04-25T02:49:39;101438.28;;;5.13;83.13
60437;BME280;46289;51.992;4.498;2023-04-25T02:51:44;101436.56;;;5.11;82.47
60437;BME280;46289;51.992;4.498;2023-04-25T02:53:51;101427.91;;;5.10;82.95
60437;BME280;46289;51.992;4.498;2023-04-25T02:56:01;101433.97;;;5.11;82.13
60437;BME280;46289;51.992;4.498;2023-04-25T02:58:09;101437.47;;;5.11;82.88
60437;BME280;46289;51.992;4.498;2023-04-25T03:00:19;101432.19;;;5.16;81.98
60437;BME280;46289;51.992;4.498;2023-04-25T03:02:31;101431.31;;;5.21;82.22
60437;BME280;46289;51.992;4.498;2023-04-25T03:04:37;101437.28;;;5.31;80.23
60437;BME280;46289;51.992;4.498;2023-04-25T03:06:42;101426.78;;;5.39;79.65
60437;BME280;46289;51.992;4.498;2023-04-25T03:08:49;101431.94;;;5.43;77.97
60437;BME280;46289;51.992;4.498;2023-04-25T03:10:55;101433.66;;;5.44;77.52
60437;BME280;46289;51.992;4.498;2023-04-25T03:13:00;101430.19;;;5.45;76.77
60437;BME280;46289;51.992;4.498;2023-04-25T03:15:07;101430.19;;;5.44;76.62
60437;BME280;46289;51.992;4.498;2023-04-25T03:17:12;101428.44;;;5.46;75.43
60437;BME280;46289;51.992;4.498;2023-04-25T03:19:22;101428.41;;;5.49;75.66
60437;BME280;46289;51.992;4.498;2023-04-25T03:21:27;101439.72;;;5.48;76.15
60437;BME280;46289;51.992;4.498;2023-04-25T03:23:34;101440.59;;;5.48;75.14
60437;BME280;46289;51.992;4.498;2023-04-25T03:25:42;101437.13;;;5.46;76.57
60437;BME280;46289;51.992;4.498;2023-04-25T03:27:49;101434.53;;;5.46;75.61
60437;BME280;46289;51.992;4.498;2023-04-25T03:29:58;101435.41;;;5.45;76.68
60437;BME280;46289;51.992;4.498;2023-04-25T03:32:05;101441.53;;;5.43;77.06
60437;BME280;46289;51.992;4.498;2023-04-25T03:34:10;101434.53;;;5.48;76.41
60437;BME280;46289;51.992;4.498;2023-04-25T03:36:21;101437.13;;;5.46;76.61
60437;BME280;46289;51.992;4.498;2023-04-25T03:38:28;101443.13;;;5.55;77.29
60437;BME280;46289;51.992;4.498;2023-04-25T03:40:33;101443.97;;;5.57;76.96
60437;BME280;46289;51.992;4.498;2023-04-25T03:42:39;101440.47;;;5.58;76.76
60437;BME280;46289;51.992;4.498;2023-04-25T03:44:46;101446.56;;;5.61;77.28
60437;BME280;46289;51.992;4.498;2023-04-25T03:46:54;101456.09;;;5.64;77.41
60437;BME280;46289;51.992;4.498;2023-04-25T03:49:02;101453.44;;;5.65;77.03
60437;BME280;46289;51.992;4.498;2023-04-25T03:51:07;101452.59;;;5.63;77.65
60437;BME280;46289;51.992;4.498;2023-04-25T03:53:20;101451.72;;;5.64;77.69
60437;BME280;46289;51.992;4.498;2023-04-25T03:55:26;101448.25;;;5.64;77.24
60437;BME280;46289;51.992;4.498;2023-04-25T03:57:32;101448.22;;;5.67;77.25
60437;BME280;46289;51.992;4.498;2023-04-25T03:59:41;101457.81;;;5.65;76.91
60437;BME280;46289;51.992;4.498;2023-04-25T04:01:49;101460.41;;;5.65;76.99
60437;BME280;46289;51.992;4.498;2023-04-25T04:03:55;101460.38;;;5.68;76.97
60437;BME280;46289;51.992;4.498;2023-04-25T04:06:05;101467.31;;;5.70;76.43
60437;BME280;46289;51.992;4.498;2023-04-25T04:08:22;101468.19;;;5.68;76.63
60437;BME280;46289;51.992;4.498;2023-04-25T04:10:32;101467.31;;;5.70;76.30
60437;BME280;46289;51.992;4.498;2023-04-25T04:12:38;101472.50;;;5.70;76.72
60437;BME280;46289;51.992;4.498;2023-04-25T04:14:50;101474.31;;;5.67;76.73
60437;BME280;46289;51.992;4.498;2023-04-25T04:16:57;101475.19;;;5.64;77.12
60437;BME280;46289;51.992;4.498;2023-04-25T04:19:05;101465.63;;;5.63;77.73
60437;BME280;46289;51.992;4.498;2023-04-25T04:21:21;101477.81;;;5.64;77.09
60437;BME280;46289;51.992;4.498;2023-04-25T04:23:34;101471.72;;;5.62;76.63
60437;BME280;46289;51.992;4.498;2023-04-25T04:25:42;101475.19;;;5.63;77.25
60437;BME280;46289;51.992;4.498;2023-04-25T04:27:53;101471.72;;;5.61;77.05
60437;BME280;46289;51.992;4.498;2023-04-25T04:30:18;101474.34;;;5.62;76.61
60437;BME280;46289;51.992;4.498;2023-04-25T04:32:31;101473.44;;;5.63;75.98
60437;BME280;46289;51.992;4.498;2023-04-25T04:34:51;101474.34;;;5.62;76.51
60437;BME280;46289;51.992;4.498;2023-04-25T04:37:15;101477.88;;;5.58;76.76
60437;BME280;46289;51.992;4.498;2023-04-25T04:39:23;101482.19;;;5.59;75.87
60437;BME280;46289;51.992;4.498;2023-04-25T04:41:32;101485.69;;;5.57;75.69
60437;BME280;46289;51.992;4.498;2023-04-25T04:43:52;101478.78;;;5.54;75.85
60437;BME280;46289;51.992;4.498;2023-04-25T04:46:03;101478.78;;;5.56;74.33
60437;BME280;46289;51.992;4.498;2023-04-25T04:48:09;101479.59;;;5.59;74.10
60437;BME280;46289;51.992;4.498;2023-04-25T04:50:16;101497.78;;;5.65;73.85
60437;BME280;46289;51.992;4.498;2023-04-25T04:52:21;101491.69;;;5.66;73.41
60437;BME280;46289;51.992;4.498;2023-04-25T04:54:29;101500.41;;;5.64;74.46
60437;BME280;46289;51.992;4.498;2023-04-25T04:56:34;101497.69;;;5.73;74.24
60437;BME280;46289;51.992;4.498;2023-04-25T04:58:39;101509.84;;;5.76;74.83
60437;BME280;46289;51.992;4.498;2023-04-25T05:00:44;101515.91;;;5.78;75.03
60437;BME280;46289;51.992;4.498;2023-04-25T05:02:51;101508.09;;;5.78;75.88
60437;BME280;46289;51.992;4.498;2023-04-25T05:04:56;101515.03;;;5.80;77.08
60437;BME280;46289;51.992;4.498;2023-04-25T05:07:01;101522.84;;;5.79;78.48
60437;BME280;46289;51.992;4.498;2023-04-25T05:09:06;101523.72;;;5.81;79.35
60437;BME280;46289;51.992;4.498;2023-04-25T05:11:13;101522.88;;;5.77;79.50
60437;BME280;46289;51.992;4.498;2023-04-25T05:13:20;101530.66;;;5.80;79.61
60437;BME280;46289;51.992;4.498;2023-04-25T05:15:25;101528.06;;;5.79;80.01
60437;BME280;46289;51.992;4.498;2023-04-25T05:17:30;101529.84;;;5.73;80.64
60437;BME280;46289;51.992;4.498;2023-04-25T05:19:35;101533.34;;;5.74;80.56
60437;BME280;46289;51.992;4.498;2023-04-25T05:21:41;101541.97;;;5.82;80.49
60437;BME280;46289;51.992;4.498;2023-04-25T05:23:46;101548.88;;;5.85;80.50
60437;BME280;46289;51.992;4.498;2023-04-25T05:25:51;101556.66;;;5.89;80.02
60437;BME280;46289;51.992;4.498;2023-04-25T05:27:59;101555.88;;;5.81;80.51
60437;BME280;46289;51.992;4.498;2023-04-25T05:30:05;101562.00;;;5.76;78.78
60437;BME280;46289;51.992;4.498;2023-04-25T05:32:10;101562.91;;;5.75;78.68
60437;BME280;46289;51.992;4.498;2023-04-25T05:34:18;101562.03;;;5.71;78.11
60437;BME280;46289;51.992;4.498;2023-04-25T05:36:28;101568.16;;;5.70;77.85
60437;BME280;46289;51.992;4.498;2023-04-25T05:38:35;101575.03;;;5.76;78.27
60437;BME280;46289;51.992;4.498;2023-04-25T05:40:50;101574.16;;;5.80;76.42
60437;BME280;46289;51.992;4.498;2023-04-25T05:43:01;101582.94;;;5.69;76.56
60437;BME280;46289;51.992;4.498;2023-04-25T05:45:08;101581.19;;;5.71;76.88
60437;BME280;46289;51.992;4.498;2023-04-25T05:47:20;101582.91;;;5.74;75.54
60437;BME280;46289;51.992;4.498;2023-04-25T05:49:37;101585.53;;;5.68;75.31
60437;BME280;46289;51.992;4.498;2023-04-25T05:52:24;101588.13;;;5.72;74.56
60437;BME280;46289;51.992;4.498;2023-04-25T05:54:51;101589.91;;;5.67;75.53
60437;BME280;46289;51.992;4.498;2023-04-25T05:57:19;101600.19;;;5.81;75.81
60437;BME280;46289;51.992;4.498;2023-04-25T05:59:53;101605.47;;;5.77;73.75
60437;BME280;46289;51.992;4.498;2023-04-25T06:02:18;101610.78;;;5.64;72.36
60437;BME280;46289;51.992;4.498;2023-04-25T06:04:59;101610.69;;;5.75;73.59
60437;BME280;46289;51.992;4.498;2023-04-25T06:07:45;101611.50;;;5.85;73.73
60437;BME280;46289;51.992;4.498;2023-04-25T06:10:15;101613.25;;;5.81;74.68
60437;BME280;46289;51.992;4.498;2023-04-25T06:12:23;101615.09;;;5.67;74.67
60437;BME280;46289;51.992;4.498;2023-04-25T06:14:40;101611.63;;;5.63;76.54
60437;BME280;46289;51.992;4.498;2023-04-25T06:16:57;101615.97;;;5.67;78.01
60437;BME280;46289;51.992;4.498;2023-04-25T06:19:14;101619.41;;;5.74;78.81
60437;BME280;46289;51.992;4.498;2023-04-25T06:21:35;101620.28;;;5.71;80.03
60437;BME280;46289;51.992;4.498;2023-04-25T06:23:41;101619.41;;;5.72;79.59
60437;BME280;46289;51.992;4.498;2023-04-25T06:25:46;101623.75;;;5.70;79.63
60437;BME280;46289;51.992;4.498;2023-04-25T06:27:52;101627.22;;;5.71;79.55
60437;BME280;46289;51.992;4.498;2023-04-25T06:29:58;101625.47;;;5.73;78.29
60437;BME280;46289;51.992;4.498;2023-04-25T06:32:06;101632.41;;;5.77;78.76
60437;BME280;46289;51.992;4.498;2023-04-25T06:34:11;101632.47;;;5.68;78.86
60437;BME280;46289;51.992;4.498;2023-04-25T06:36:18;101630.72;;;5.71;78.94
60437;BME280;46289;51.992;4.498;2023-04-25T06:38:26;101637.59;;;5.79;78.53
60437;BME280;46289;51.992;4.498;2023-04-25T06:40:32;101634.94;;;5.86;78.79
60437;BME280;46289;51.992;4.498;2023-04-25T06:42:40;101639.22;;;5.92;78.04
60437;BME280;46289;51.992;4.498;2023-04-25T06:44:47;101640.94;;;5.99;78.38
60437;BME280;46289;51.992;4.498;2023-04-25T06:46:53;101633.97;;;6.01;77.74
60437;BME280;46289;51.992;4.498;2023-04-25T06:49:02;101641.75;;;6.09;77.46
60437;BME280;46289;51.992;4.498;2023-04-25T06:51:29;101655.56;;;6.19;76.12
60437;BME280;46289;51.992;4.498;2023-04-25T06:53:54;101649.31;;;6.35;76.94
60437;BME280;46289;51.992;4.498;2023-04-25T06:56:08;101646.59;;;6.46;77.13
60437;BME280;46289;51.992;4.498;2023-04-25T06:58:23;101649.91;;;6.60;76.33
60437;BME280;46289;51.992;4.498;2023-04-25T07:00:30;101648.97;;;6.66;76.25
60437;BME280;46289;51.992;4.498;2023-04-25T07:02:48;101648.00;;;6.76;74.67
60437;BME280;46289;51.992;4.498;2023-04-25T07:05:00;101650.66;;;6.73;74.16
60437;BME280;46289;51.992;4.498;2023-04-25T07:07:09;101660.09;;;6.85;75.09
60437;BME280;46289;51.992;4.498;2023-04-25T07:09:14;101653.06;;;6.90;73.86
60437;BME280;46289;51.992;4.498;2023-04-25T07:11:27;101660.03;;;6.91;72.26
60437;BME280;46289;51.992;4.498;2023-04-25T07:13:33;101658.84;;;7.15;73.23
60437;BME280;46289;51.992;4.498;2023-04-25T07:15:44;101651.66;;;7.29;72.87
60437;BME280;46289;51.992;4.498;2023-04-25T07:18:03;101655.03;;;7.40;72.91
60437;BME280;46289;51.992;4.498;2023-04-25T07:20:19;101658.91;;;7.70;72.54
60437;BME280;46289;51.992;4.498;2023-04-25T07:22:32;101653.31;;;7.94;70.15
60437;BME280;46289;51.992;4.498;2023-04-25T07:24:37;101656.25;;;8.74;68.85
60437;BME280;46289;51.992;4.498;2023-04-25T07:26:43;101667.47;;;8.83;67.18
60437;BME280;46289;51.992;4.498;2023-04-25T07:28:48;101672.91;;;9.54;66.46
60437;BME280;46289;51.992;4.498;2023-04-25T07:30:54;101664.28;;;10.22;66.63
60437;BME280;46289;51.992;4.498;2023-04-25T07:33:00;101672.63;;;10.02;66.95
60437;BME280;46289;51.992;4.498;2023-04-25T07:35:06;101670.34;;;9.12;64.67
60437;BME280;46289;51.992;4.498;2023-04-25T07:37:18;101668.03;;;8.53;65.25
60437;BME280;46289;51.992;4.498;2023-04-25T07:39:27;101668.41;;;8.29;67.68
60437;BME280;46289;51.992;4.498;2023-04-25T07:41:44;101674.06;;;8.06;67.31
60437;BME280;46289;51.992;4.498;2023-04-25T07:43:50;101674.47;;;8.32;64.76
60437;BME280;46289;51.992;4.498;2023-04-25T07:45:56;101675.25;;;8.86;63.13
60437;BME280;46289;51.992;4.498;2023-04-25T07:48:02;101668.38;;;8.80;62.31
60437;BME280;46289;51.992;4.498;2023-04-25T07:50:13;101674.28;;;9.32;61.13
60437;BME280;46289;51.992;4.498;2023-04-25T07:52:25;101667.66;;;9.54;58.75
60437;BME280;46289;51.992;4.498;2023-04-25T07:54:30;101669.84;;;10.44;58.75
60437;BME280;46289;51.992;4.498;2023-04-25T07:56:38;101669.34;;;10.94;56.55
60437;BME280;46289;51.992;4.498;2023-04-25T07:58:57;101673.06;;;11.46;55.03
60437;BME280;46289;51.992;4.498;2023-04-25T08:01:04;101668.63;;;11.48;52.08
60437;BME280;46289;51.992;4.498;2023-04-25T08:03:09;101674.41;;;11.02;54.23
60437;BME280;46289;51.992;4.498;2023-04-25T08:05:14;101684.94;;;10.36;54.89
60437;BME280;46289;51.992;4.498;2023-04-25T08:07:27;101686.56;;;9.68;56.15
60437;BME280;46289;51.992;4.498;2023-04-25T08:09:32;101697.16;;;9.65;55.71
60437;BME280;46289;51.992;4.498;2023-04-25T08:11:42;101704.47;;;9.90;55.13
60437;BME280;46289;51.992;4.498;2023-04-25T08:13:48;101712.94;;;8.80;57.55
60437;BME280;46289;51.992;4.498;2023-04-25T08:15:59;101718.59;;;8.55;59.69
60437;BME280;46289;51.992;4.498;2023-04-25T08:18:24;101724.94;;;8.45;60.27
60437;BME280;46289;51.992;4.498;2023-04-25T08:20:35;101725.81;;;7.88;58.68
60437;BME280;46289;51.992;4.498;2023-04-25T08:22:55;101731.00;;;7.91;59.22
60437;BME280;46289;51.992;4.498;2023-04-25T08:25:04;101735.81;;;8.19;58.76
60437;BME280;46289;51.992;4.498;2023-04-25T08:27:18;101737.66;;;8.65;58.67
60437;BME280;46289;51.992;4.498;2023-04-25T08:29:30;101733.50;;;9.00;56.12
60437;BME280;46289;51.992;4.498;2023-04-25T08:31:51;101738.41;;;9.59;54.82
60437;BME280;46289;51.992;4.498;2023-04-25T08:34:01;101740.28;;;9.93;54.04
60437;BME280;46289;51.992;4.498;2023-04-25T08:36:30;101731.50;;;9.55;53.80
60437;BME280;46289;51.992;4.498;2023-04-25T08:39:15;101745.53;;;9.93;51.85
60437;BME280;46289;51.992;4.498;2023-04-25T08:41:57;101758.91;;;9.40;55.16
60437;BME280;46289;51.992;4.498;2023-04-25T08:44:11;101754.47;;;8.53;60.24
60437;BME280;46289;51.992;4.498;2023-04-25T08:46:31;101757.63;;;8.20;60.88
60437;BME280;46289;51.992;4.498;2023-04-25T08:48:40;101766.44;;;8.14;61.74
60437;BME280;46289;51.992;4.498;2023-04-25T08:50:50;101765.25;;;8.33;62.59
60437;BME280;46289;51.992;4.498;2023-04-25T08:52:59;101768.44;;;9.02;61.09
60437;BME280;46289;51.992;4.498;2023-04-25T08:55:12;101772.69;;;9.08;59.84
60437;BME280;46289;51.992;4.498;2023-04-25T08:57:21;101781.88;;;8.84;60.41
60437;BME280;46289;51.992;4.498;2023-04-25T08:59:27;101778.84;;;8.57;58.92
60437;BME280;46289;51.992;4.498;2023-04-25T09:01:33;101778.91;;;9.04;59.31
60437;BME280;46289;51.992;4.498;2023-04-25T09:03:41;101778.00;;;9.48;57.36
60437;BME280;46289;51.992;4.498;2023-04-25T09:05:54;101783.88;;;10.37;54.95
60437;BME280;46289;51.992;4.498;2023-04-25T09:08:00;101790.97;;;9.96;53.88
60437;BME280;46289;51.992;4.498;2023-04-25T09:10:06;101787.41;;;9.99;52.29
60437;BME280;46289;51.992;4.498;2023-04-25T09:12:13;101781.75;;;10.16;53.62
60437;BME280;46289;51.992;4.498;2023-04-25T09:14:27;101797.78;;;9.21;51.84
60437;BME280;46289;51.992;4.498;2023-04-25T09:16:32;101802.00;;;9.28;52.55
60437;BME280;46289;51.992;4.498;2023-04-25T09:18:40;101802.06;;;10.07;51.08
60437;BME280;46289;51.992;4.498;2023-04-25T09:20:49;101813.81;;;9.93;51.58
60437;BME280;46289;51.992;4.498;2023-04-25T09:23:03;101808.59;;;10.30;51.52
60437;BME280;46289;51.992;4.498;2023-04-25T09:25:10;101809.69;;;10.57;52.15
60437;BME280;46289;51.992;4.498;2023-04-25T09:27:21;101811.78;;;11.42;50.97
60437;BME280;46289;51.992;4.498;2023-04-25T09:29:29;101821.28;;;10.11;52.66
60437;BME280;46289;51.992;4.498;2023-04-25T09:31:35;101824.31;;;9.04;54.15
60437;BME280;46289;51.992;4.498;2023-04-25T09:33:40;101818.56;;;9.74;55.08
60437;BME280;46289;51.992;4.498;2023-04-25T09:35:46;101820.94;;;9.84;52.81
60437;BME280;46289;51.992;4.498;2023-04-25T09:37:57;101828.56;;;9.11;54.41
60437;BME280;46289;51.992;4.498;2023-04-25T09:40:05;101832.47;;;8.89;57.03
60437;BME280;46289;51.992;4.498;2023-04-25T09:42:12;101836.84;;;8.88;53.69
60437;BME280;46289;51.992;4.498;2023-04-25T09:44:25;101818.00;;;10.00;52.06
60437;BME280;46289;51.992;4.498;2023-04-25T09:46:40;101826.84;;;9.96;51.19
60437;BME280;46289;51.992;4.498;2023-04-25T09:48:50;101836.91;;;9.32;51.55
60437;BME280;46289;51.992;4.498;2023-04-25T09:51:06;101836.31;;;10.03;51.54
60437;BME280;46289;51.992;4.498;2023-04-25T09:53:11;101830.63;;;10.60;51.06
60437;BME280;46289;51.992;4.498;2023-04-25T09:55:17;101827.31;;;10.88;50.54
60437;BME280;46289;51.992;4.498;2023-04-25T09:57:25;101829.13;;;10.84;50.17
60437;BME280;46289;51.992;4.498;2023-04-25T09:59:35;101832.50;;;10.89;52.17
60437;BME280;46289;51.992;4.498;2023-04-25T10:01:43;101837.75;;;10.55;53.05
60437;BME280;46289;51.992;4.498;2023-04-25T10:03:50;101843.81;;;10.20;53.95
60437;BME280;46289;51.992;4.498;2023-04-25T10:05:59;101858.22;;;9.15;54.68
60437;BME280;46289;51.992;4.498;2023-04-25T10:08:06;101852.09;;;9.14;56.40
60437;BME280;46289;51.992;4.498;2023-04-25T10:10:13;101852.03;;;9.19;57.45
60437;BME280;46289;51.992;4.498;2023-04-25T10:12:21;101853.25;;;9.46;58.82
60437;BME280;46289;51.992;4.498;2023-04-25T10:14:26;101863.66;;;9.51;60.03
60437;BME280;46289;51.992;4.498;2023-04-25T10:16:35;101861.19;;;9.43;58.52
60437;BME280;46289;51.992;4.498;2023-04-25T10:18:40;101859.69;;;9.75;59.07
60437;BME280;46289;51.992;4.498;2023-04-25T10:20:46;101851.66;;;10.94;56.06
60437;BME280;46289;51.992;4.498;2023-04-25T10:22:54;101873.56;;;10.22;61.24
60437;BME280;46289;51.992;4.498;2023-04-25T10:25:00;101879.00;;;8.14;63.88
60437;BME280;46289;51.992;4.498;2023-04-25T10:27:06;101886.31;;;8.54;66.08
60437;BME280;46289;51.992;4.498;2023-04-25T10:29:15;101890.78;;;8.47;65.92
60437;BME280;46289;51.992;4.498;2023-04-25T10:31:29;101884.41;;;8.02;65.98
60437;BME280;46289;51.992;4.498;2023-04-25T10:33:39;101879.13;;;8.06;66.86
60437;BME280;46289;51.992;4.498;2023-04-25T10:35:45;101884.41;;;8.03;65.97
60437;BME280;46289;51.992;4.498;2023-04-25T10:38:04;101887.00;;;8.65;66.46
60437;BME280;46289;51.992;4.498;2023-04-25T10:40:10;101871.91;;;9.32;63.92
60437;BME280;46289;51.992;4.498;2023-04-25T10:42:15;101873.88;;;9.64;61.41
60437;BME280;46289;51.992;4.498;2023-04-25T10:44:20;101867.75;;;10.46;64.44
60437;BME280;46289;51.992;4.498;2023-04-25T10:46:26;101873.69;;;9.74;60.60
60437;BME280;46289;51.992;4.498;2023-04-25T10:48:50;101873.31;;;9.92;58.93
60437;BME280;46289;51.992;4.498;2023-04-25T10:51:07;101873.22;;;10.37;54.55
60437;BME280;46289;51.992;4.498;2023-04-25T10:53:19;101880.28;;;10.35;55.80
60437;BME280;46289;51.992;4.498;2023-04-25T10:55:50;101873.03;;;9.62;54.60
60437;BME280;46289;51.992;4.498;2023-04-25T10:58:00;101868.63;;;9.19;54.98
60437;BME280;46289;51.992;4.498;2023-04-25T11:00:12;101876.09;;;8.91;57.13
60437;BME280;46289;51.992;4.498;2023-04-25T11:02:28;101886.16;;;9.64;55.45
60437;BME280;46289;51.992;4.498;2023-04-25T11:04:37;101883.94;;;9.87;52.86
60437;BME280;46289;51.992;4.498;2023-04-25T11:06:50;101890.63;;;9.59;53.12
60437;BME280;46289;51.992;4.498;2023-04-25T11:09:10;101883.56;;;10.04;53.07
60437;BME280;46289;51.992;4.498;2023-04-25T11:11:16;101880.22;;;9.54;52.66
60437;BME280;46289;51.992;4.498;2023-04-25T11:13:29;101896.97;;;8.97;53.31
60437;BME280;46289;51.992;4.498;2023-04-25T11:15:34;101879.63;;;8.89;53.74
60437;BME280;46289;51.992;4.498;2023-04-25T11:17:40;101889.22;;;8.91;55.35
60437;BME280;46289;51.992;4.498;2023-04-25T11:19:53;101879.34;;;9.54;53.56
60437;BME280;46289;51.992;4.498;2023-04-25T11:22:00;101890.81;;;9.92;53.05
60437;BME280;46289;51.992;4.498;2023-04-25T11:24:05;101884.19;;;10.56;53.11
60437;BME280;46289;51.992;4.498;2023-04-25T11:26:11;101894.13;;;10.43;50.81
60437;BME280;46289;51.992;4.498;2023-04-25T11:28:21;101891.19;;;10.17;50.71